Thurman, IA

2:54 PM CDT on May 06, 2015 (GMT -0500)
North Side of Town | | Change Station
CLOSE
Current Station
Personal Weather Station
Location: Thurman, IA
Elevation: 1007 ft
Nearby Weather Stations

Elev 1007 ft 40.82 °N, 95.75 °W | Updated 1 minute ago

Overcast
Overcast
71.2 °F
Feels Like 74 °F
N
6.0
Wind Variable Wind from SE
Gusts 20.0 mph

Today
High -- | Low -- °F
--% Chance of Precip.
Yesterday
High -- | Low -- °F
Precip. -- in
6:15 AM 8:24 PM
Waning Gibbous, 92% visible
Pressure 29.85 in
Visibility 10.0 miles
Clouds Overcast 4100 ft
Heat Index 74 °F
Dew Point 62 °F
Humidity 73%
Rainfall 0.25 in
Snow Depth Not available.
UV 3 out of 12
Pollen 7.70 out of 12
Air Quality Not available.
Flu Activity Local Activity
METAR KPMV 061935Z AUTO 16016G28KT 10SM OVC041 21/14 A2985 RMK AO2 LTG DSNT S T02100140

More Conditions Fewer Conditions

Pressure 29.85 in
Visibility 10.0 miles
Clouds Overcast 4100 ft
Heat Index 74 °F
Dew Point 62 °F
Humidity 73%
Rainfall 0.25 in
Snow Depth Not available.
UV 3 out of 12
Pollen 7.70 out of 12
Air Quality Not available.
Flu Activity Local Activity
METAR KPMV 061935Z AUTO 16016G28KT 10SM OVC041 21/14 A2985 RMK AO2 LTG DSNT S T02100140

More Conditions Fewer Conditions

10-Day Weather Forecast

Almanac

Astronomy

May. 06, 2015 Rise Set
Actual Time
Civil Twilight
Nautical Twilight
Astronomical Twilight
Moon
Length of Visible Light
Length of Day
Tomorrow will be .
, % of the Moon is Illuminated

Today's Extremes

State Highs State Lows

Community

WunderPhotos

Upload Photos

1,819,003 photos uploaded!

WunderBlogs® & News

Nearby

Air Quality

  Air Quality AQ Index Pollutant
Not available.

Snow Depth

Station Depth Elevation

Earthquake Activity

City Distance Mag. Time & Date
Minimum magnitude displayed is 2.5.

Coastal Water Temperatures

Place Temperature

Stations

Nearby Weather Stations

Station Location Temp. Windchill Dew Point Humidity Wind Precip. Elev Updated Type